createdAt,value
2022-11-24T00:03:10.023Z,92.00
2022-11-24T00:08:17.805Z,91.90
2022-11-24T00:13:21.869Z,91.80
2022-11-24T00:18:25.692Z,91.80
2022-11-24T00:23:28.273Z,91.80
2022-11-24T00:28:33.336Z,91.80
2022-11-24T00:33:35.869Z,91.80
2022-11-24T00:38:38.490Z,91.80
2022-11-24T00:43:42.450Z,91.80
2022-11-24T00:48:45.521Z,91.80
2022-11-24T00:53:48.192Z,91.90
2022-11-24T00:58:52.636Z,92.10
2022-11-24T01:03:55.723Z,92.20
2022-11-24T01:08:58.494Z,92.20
2022-11-24T01:14:02.400Z,92.10
2022-11-24T01:19:04.948Z,92.00
2022-11-24T01:24:07.602Z,92.00
2022-11-24T01:29:12.656Z,91.90
2022-11-24T01:34:15.284Z,91.90
2022-11-24T01:39:17.968Z,92.10
2022-11-24T01:44:24.309Z,92.30
2022-11-24T01:49:39.927Z,92.40
2022-11-24T01:54:49.116Z,92.50
2022-11-24T01:59:59.339Z,92.50
2022-11-24T02:05:05.920Z,92.50
2022-11-24T02:10:13.111Z,92.40
2022-11-24T02:15:17.499Z,92.40
2022-11-24T02:20:20.050Z,92.40
2022-11-24T02:25:31.587Z,92.30
2022-11-24T02:30:36.184Z,92.40
2022-11-24T02:35:38.683Z,92.30
2022-11-24T02:40:44.508Z,92.20
2022-11-24T02:45:48.651Z,92.10
2022-11-24T02:50:51.108Z,92.00
2022-11-24T02:55:53.479Z,92.00
2022-11-24T03:00:57.539Z,91.90
2022-11-24T03:06:00.229Z,92.00
2022-11-24T03:11:02.860Z,92.00
2022-11-24T03:16:09.707Z,92.00
2022-11-24T03:21:12.144Z,92.00
2022-11-24T03:26:18.166Z,92.00
2022-11-24T03:31:22.703Z,92.10
2022-11-24T03:36:25.473Z,92.10
2022-11-24T03:41:27.938Z,92.20
2022-11-24T03:46:31.992Z,92.20
2022-11-24T03:51:34.527Z,92.20
2022-11-24T03:56:36.911Z,92.20
2022-11-24T04:01:40.883Z,92.20
2022-11-24T04:06:43.587Z,92.20
2022-11-24T04:11:46.000Z,92.20
2022-11-24T04:16:49.995Z,92.30
2022-11-24T04:21:52.264Z,92.40
2022-11-24T04:26:54.718Z,92.50
2022-11-24T04:31:58.613Z,92.60
2022-11-24T04:37:00.956Z,92.60
2022-11-24T04:42:03.170Z,92.70
2022-11-24T04:47:23.586Z,92.70
2022-11-24T04:52:26.574Z,92.80
2022-11-24T04:57:28.845Z,92.80
2022-11-24T05:02:32.544Z,92.80
2022-11-24T05:07:35.220Z,92.90
2022-11-24T05:12:37.669Z,92.90
2022-11-24T05:17:41.471Z,92.90
2022-11-24T05:22:43.844Z,93.00
2022-11-24T05:27:46.153Z,93.00
2022-11-24T05:32:49.925Z,92.90
2022-11-24T05:37:52.148Z,93.40
2022-11-24T05:42:54.530Z,92.90
2022-11-24T05:48:05.786Z,92.90
2022-11-24T05:53:10.978Z,92.80
2022-11-24T05:58:13.258Z,92.60
2022-11-24T06:03:17.197Z,92.50
2022-11-24T06:08:19.478Z,92.50
2022-11-24T06:13:21.720Z,92.50
2022-11-24T06:18:25.861Z,92.50
2022-11-24T06:23:31.158Z,92.60
2022-11-24T06:28:33.665Z,92.60
2022-11-24T06:33:38.928Z,92.70
2022-11-24T06:38:41.335Z,92.70
2022-11-24T06:43:43.634Z,92.70
2022-11-24T06:48:47.468Z,92.70
2022-11-24T06:53:49.829Z,92.70
2022-11-24T06:58:53.726Z,92.80
2022-11-24T07:03:58.347Z,92.80
2022-11-24T07:09:00.625Z,92.80
2022-11-24T07:14:03.836Z,92.80
2022-11-24T07:19:09.390Z,92.80
2022-11-24T07:24:12.114Z,92.80
2022-11-24T07:29:14.465Z,92.80
2022-11-24T07:34:18.424Z,92.80
2022-11-24T07:39:20.664Z,92.90
2022-11-24T07:44:22.927Z,93.00
2022-11-24T07:49:26.571Z,93.20
2022-11-24T07:54:28.784Z,93.30
2022-11-24T07:59:31.012Z,93.30
2022-11-24T08:04:37.140Z,93.40
2022-11-24T08:09:39.495Z,93.40
2022-11-24T08:14:41.694Z,93.30
2022-11-24T08:19:45.782Z,93.20
2022-11-24T08:24:48.149Z,93.00
2022-11-24T08:29:50.359Z,93.00
2022-11-24T08:34:59.614Z,92.80
2022-11-24T08:40:12.856Z,92.50
2022-11-24T08:45:21.084Z,92.40
2022-11-24T08:50:26.345Z,92.30
2022-11-24T08:55:28.955Z,92.00
2022-11-24T09:00:31.244Z,91.90
2022-11-24T09:05:52.186Z,91.70
2022-11-24T09:11:00.130Z,91.50
2022-11-24T09:16:06.022Z,91.30
2022-11-24T09:21:11.885Z,91.10
2022-11-24T09:26:17.566Z,91.10
2022-11-24T09:31:20.647Z,90.90
2022-11-24T09:36:25.154Z,90.80
2022-11-24T09:41:42.390Z,90.80
2022-11-24T09:46:51.791Z,90.00
2022-11-24T09:51:56.400Z,90.40
2022-11-24T09:57:01.425Z,90.40
2022-11-24T10:02:10.939Z,90.00
2022-11-24T10:07:22.536Z,90.20
2022-11-24T10:12:40.360Z,89.00
2022-11-24T10:18:04.268Z,88.10
2022-11-24T10:23:23.308Z,87.60
2022-11-24T10:28:30.924Z,86.30
2022-11-24T10:33:33.370Z,87.00
2022-11-24T10:38:42.866Z,87.30
2022-11-24T10:43:45.132Z,85.90
2022-11-24T10:48:52.096Z,85.50
2022-11-24T10:54:01.535Z,84.10
2022-11-24T10:59:26.319Z,83.80
2022-11-24T11:04:31.017Z,84.80
2022-11-24T11:09:35.036Z,84.70
2022-11-24T11:14:37.479Z,84.40
2022-11-24T11:19:50.037Z,84.10
2022-11-24T11:25:07.845Z,84.30
2022-11-24T11:35:46.256Z,82.70
2022-11-24T11:40:52.364Z,83.70
2022-11-24T11:46:02.117Z,81.10
2022-11-24T11:51:23.970Z,80.00
2022-11-24T11:56:30.894Z,80.50
2022-11-24T12:01:49.431Z,80.70
2022-11-24T12:07:06.535Z,79.60
2022-11-24T12:12:26.250Z,80.20
2022-11-24T12:17:33.773Z,82.10
2022-11-24T12:22:47.190Z,80.60
2022-11-24T12:28:03.535Z,79.10
2022-11-24T12:33:31.234Z,79.60
2022-11-24T12:38:45.409Z,79.60
2022-11-24T12:43:51.657Z,80.50
2022-11-24T12:49:04.573Z,81.10
2022-11-24T12:54:13.055Z,81.20
2022-11-24T12:59:27.930Z,81.20
2022-11-24T13:04:37.945Z,80.60
2022-11-24T13:10:34.895Z,80.60
2022-11-24T13:16:35.188Z,79.50
2022-11-24T13:21:48.094Z,78.50
2022-11-24T13:26:52.511Z,80.20
2022-11-24T13:32:16.970Z,80.00
2022-11-24T13:37:32.003Z,79.60
2022-11-24T13:43:20.288Z,80.00
2022-11-24T13:48:59.818Z,78.50
2022-11-24T13:54:02.419Z,78.30
2022-11-24T13:59:17.338Z,80.10
2022-11-24T14:04:31.899Z,78.30
2022-11-24T14:09:40.932Z,79.00
2022-11-24T14:14:44.753Z,79.60
2022-11-24T14:19:50.397Z,79.70
2022-11-24T14:24:55.143Z,79.60
2022-11-24T14:29:59.466Z,79.90
2022-11-24T14:35:15.729Z,80.00
2022-11-24T14:40:39.652Z,80.50
2022-11-24T14:45:49.947Z,80.40
2022-11-24T14:51:05.005Z,80.80
2022-11-24T14:56:09.927Z,81.70
2022-11-24T15:01:21.379Z,82.10
2022-11-24T15:06:25.231Z,82.30
2022-11-24T15:11:30.857Z,82.90
2022-11-24T15:16:33.157Z,83.10
2022-11-24T15:21:37.917Z,83.50
2022-11-24T15:26:42.132Z,83.90
2022-11-24T15:31:50.826Z,84.20
2022-11-24T15:36:56.287Z,84.50
2022-11-24T15:41:58.601Z,84.80
2022-11-24T15:47:01.179Z,85.10
2022-11-24T15:52:05.957Z,85.50
2022-11-24T15:57:10.753Z,85.70
2022-11-24T16:02:13.599Z,86.00
2022-11-24T16:07:17.671Z,86.20
2022-11-24T16:12:19.879Z,86.50
2022-11-24T16:17:22.087Z,86.80
2022-11-24T16:22:26.072Z,87.00
2022-11-24T16:27:28.457Z,87.20
2022-11-24T16:32:30.842Z,87.40
2022-11-24T16:37:34.947Z,87.70
2022-11-24T16:42:37.387Z,87.90
2022-11-24T16:47:40.482Z,88.10
2022-11-24T16:52:44.247Z,88.40
2022-11-24T16:57:46.661Z,88.50
2022-11-24T17:02:48.956Z,88.60
2022-11-24T17:07:52.792Z,88.80
2022-11-24T17:12:55.256Z,89.10
2022-11-24T17:18:22.989Z,89.20
2022-11-24T17:23:21.250Z,89.30
2022-11-24T17:28:23.436Z,89.40
2022-11-24T17:33:25.690Z,89.70
2022-11-24T17:38:29.878Z,90.00
2022-11-24T17:43:32.312Z,90.00
2022-11-24T17:48:35.891Z,90.10
2022-11-24T17:53:41.056Z,90.20
2022-11-24T17:58:43.791Z,90.20
2022-11-24T18:03:50.438Z,90.30
2022-11-24T18:08:58.465Z,90.30
2022-11-24T18:14:02.781Z,90.40
2022-11-24T18:19:09.886Z,90.40
2022-11-24T18:24:13.916Z,90.40
2022-11-24T18:29:16.312Z,90.40
2022-11-24T18:34:18.596Z,90.30
2022-11-24T18:39:22.306Z,90.40
2022-11-24T18:44:24.401Z,90.50
2022-11-24T18:49:26.583Z,90.50
2022-11-24T18:54:30.203Z,90.50
2022-11-24T18:59:32.729Z,90.50
2022-11-24T19:04:35.112Z,90.50
2022-11-24T19:09:39.008Z,90.60
2022-11-24T19:14:41.266Z,90.60
2022-11-24T19:19:43.424Z,90.60
2022-11-24T19:24:52.062Z,90.70
2022-11-24T19:29:54.524Z,90.70
2022-11-24T19:34:56.796Z,90.70
2022-11-24T19:40:02.266Z,90.70
2022-11-24T19:45:05.981Z,90.80
2022-11-24T19:50:10.484Z,90.80
2022-11-24T19:55:15.535Z,90.80
2022-11-24T20:00:18.564Z,90.90
2022-11-24T20:05:20.787Z,90.90
2022-11-24T20:10:24.789Z,91.00
2022-11-24T20:15:27.394Z,91.10
2022-11-24T20:20:29.659Z,91.10
2022-11-24T20:25:37.947Z,91.10
2022-11-24T20:30:40.159Z,91.10
2022-11-24T20:35:44.077Z,91.10
2022-11-24T20:40:48.318Z,91.10
2022-11-24T20:45:50.810Z,91.20
2022-11-24T20:50:53.025Z,91.20
2022-11-24T20:56:05.897Z,91.10
2022-11-24T21:01:16.033Z,91.20
2022-11-24T21:06:19.151Z,91.20
2022-11-24T21:11:23.840Z,91.20
2022-11-24T21:16:28.005Z,91.20
2022-11-24T21:21:33.063Z,91.20
2022-11-24T21:26:38.712Z,91.20
2022-11-24T21:31:41.258Z,91.20
2022-11-24T21:36:43.635Z,91.20
2022-11-24T21:41:47.342Z,91.30
2022-11-24T21:46:55.733Z,91.60
2022-11-24T21:51:58.640Z,91.70
2022-11-24T21:57:02.369Z,91.70
2022-11-24T22:02:13.034Z,91.80
2022-11-24T22:07:15.876Z,91.80
2022-11-24T22:12:19.763Z,91.70
2022-11-24T22:17:21.956Z,91.60
2022-11-24T22:22:24.149Z,91.50
2022-11-24T22:27:27.775Z,91.50
2022-11-24T22:32:30.057Z,91.40
2022-11-24T22:37:32.320Z,91.30
2022-11-24T22:42:36.061Z,91.20
2022-11-24T22:47:38.270Z,91.10
2022-11-24T22:52:40.479Z,91.20
2022-11-24T22:57:48.138Z,91.30
2022-11-24T23:02:51.095Z,91.40
2022-11-24T23:07:53.398Z,91.50
2022-11-24T23:12:57.174Z,91.50
2022-11-24T23:17:59.379Z,91.50
2022-11-24T23:23:01.540Z,91.60
2022-11-24T23:28:05.445Z,91.60
2022-11-24T23:33:07.741Z,91.50
2022-11-24T23:38:10.082Z,91.50
2022-11-24T23:43:13.819Z,91.40
2022-11-24T23:48:15.980Z,91.40
2022-11-24T23:53:18.395Z,91.30
2022-11-24T23:58:22.284Z,91.30
